Hedgesville, WV

1:46 PM EDT on September 21, 2014 (GMT -0400)
Eastern W Va Regional-Shepherd | Change Station
CLOSE
Current Station
Airport
Location: Martinsburg,
Elevation: 531 ft
Nearby Weather Stations

Elev 531 ft 39.40 °N, 77.98 °W | Updated 53 minutes ago

Clear
Clear
83 °F
Feels Like 83 °F
N
4
Wind Variable Wind from Variable

Today
High -- | Low -- °F
--% Chance of Precip.
Yesterday
High -- | Low -- °F
Precip. -- in
6:58 AM 7:11 PM
Waning Crescent, 6% visible
Pressure 29.77 in
Visibility 10.0 miles
Clouds Clear
Heat Index 83 °F
Dew Point 59 °F
Humidity 44%
Rainfall 0.00 in
Snow Depth Not available.
UV 8 out of 12
Pollen 4.00 out of 12
Air Quality Not available.
Flu Activity Not available.
METAR KMRB 211653Z VRB03KT 10SM CLR 28/15 A2978 RMK AO2 SLP080 T02830150

More Conditions Fewer Conditions

Pressure 29.77 in
Visibility 10.0 miles
Clouds Clear
Heat Index 83 °F
Dew Point 59 °F
Humidity 44%
Rainfall 0.00 in
Snow Depth Not available.
UV 8 out of 12
Pollen 4.00 out of 12
Air Quality Not available.
Flu Activity Not available.
METAR KMRB 211653Z VRB03KT 10SM CLR 28/15 A2978 RMK AO2 SLP080 T02830150

More Conditions Fewer Conditions

10-Day Weather Forecast

Almanac

Astronomy

Sep. 21, 2014 Rise Set
Actual Time 6:58 AM EDT 7:11 PM EDT
Civil Twilight 6:32 AM EDT 7:37 PM EDT
Nautical Twilight 6:00 AM EDT 8:09 PM EDT
Astronomical Twilight 5:28 AM EDT 8:41 PM EDT
Moon 4:31 AM EDT 5:45 PM EDT
Length of Visible Light 13h 05m
Length of Day
12h 12m
Tomorrow will be 2m 34s shorter.
Waning Crescent, 6% of the Moon is Illuminated
Today
Waning Crescent
Sep 24
New
Oct 1
First Quarter
Oct 8
Full
Oct 15
Last Quarter

Today's Extremes

State Highs State Lows

Community

WunderPhotos

Upload Photos

1,755,199 photos uploaded!

WunderBlogs® & News

Nearby

Snow Depth

Station Depth Elevation
No new snow has been reported.

Earthquake Activity

City Distance Mag. Time & Date
No recent earthquake activity has been reported nearby.
Minimum magnitude displayed is 2.5.

Coastal Water Temperatures

Place Temperature
No Stations Reporting

Nearby Weather Stations